createdAt,value
2022-11-14T00:01:21.240Z,33.58
2022-11-14T00:03:52.267Z,30.67
2022-11-14T00:06:20.358Z,30.15
2022-11-14T00:08:48.462Z,31.80
2022-11-14T00:11:16.909Z,31.42
2022-11-14T00:13:45.298Z,30.75
2022-11-14T00:16:13.576Z,35.45
2022-11-14T00:18:41.805Z,31.42
2022-11-14T00:21:11.646Z,35.20
2022-11-14T00:23:39.688Z,30.60
2022-11-14T00:26:08.081Z,29.02
2022-11-14T00:28:36.525Z,28.40
2022-11-14T00:31:04.649Z,29.48
2022-11-14T00:33:33.130Z,31.40
2022-11-14T00:36:01.242Z,31.45
2022-11-14T00:38:31.322Z,32.25
2022-11-14T00:40:59.552Z,28.73
2022-11-14T00:43:28.502Z,30.15
2022-11-14T00:45:56.503Z,29.27
2022-11-14T00:48:24.722Z,30.40
2022-11-14T00:50:53.071Z,30.48
2022-11-14T00:53:21.070Z,28.10
2022-11-14T00:55:50.950Z,27.52
2022-11-14T00:58:18.941Z,28.35
2022-11-14T01:00:47.360Z,26.60
2022-11-14T01:03:15.531Z,29.70
2022-11-14T01:05:44.806Z,30.88
2022-11-14T01:08:13.381Z,29.83
2022-11-14T01:10:42.236Z,30.42
2022-11-14T01:13:12.122Z,29.92
2022-11-14T01:15:41.293Z,28.77
2022-11-14T01:18:10.698Z,27.55
2022-11-14T01:20:40.654Z,29.02
2022-11-14T01:23:09.226Z,27.02
2022-11-14T01:25:38.314Z,29.85
2022-11-14T01:28:08.138Z,28.70
2022-11-14T01:30:37.840Z,29.83
2022-11-14T01:33:06.900Z,29.15
2022-11-14T01:35:36.183Z,26.25
2022-11-14T01:38:05.020Z,26.25
2022-11-14T01:40:33.719Z,24.92
2022-11-14T01:43:24.950Z,28.20
2022-11-14T01:45:57.365Z,29.02
2022-11-14T01:48:29.634Z,29.42
2022-11-14T01:51:00.065Z,27.63
2022-11-14T01:53:28.421Z,28.52
2022-11-14T01:55:59.752Z,29.92
2022-11-14T01:58:29.149Z,27.60
2022-11-14T02:00:59.220Z,28.85
2022-11-14T02:03:27.549Z,30.80
2022-11-14T02:05:55.860Z,32.50
2022-11-14T02:08:24.946Z,32.95
2022-11-14T02:10:53.009Z,29.30
2022-11-14T02:13:21.373Z,28.75
2022-11-14T02:15:49.638Z,28.60
2022-11-14T02:18:19.390Z,30.00
2022-11-14T02:20:48.794Z,29.77
2022-11-14T02:23:26.983Z,28.77
2022-11-14T02:25:55.599Z,31.08
2022-11-14T02:28:23.728Z,28.95
2022-11-14T02:30:52.209Z,28.83
2022-11-14T02:33:20.316Z,28.10
2022-11-14T02:35:49.867Z,27.90
2022-11-14T02:38:18.188Z,30.90
2022-11-14T02:40:46.268Z,28.05
2022-11-14T02:43:14.543Z,28.67
2022-11-14T02:45:42.772Z,29.88
2022-11-14T02:48:11.106Z,29.25
2022-11-14T02:50:39.195Z,30.05
2022-11-14T02:53:08.980Z,30.00
2022-11-14T02:55:37.278Z,26.83
2022-11-14T02:58:05.533Z,29.23
2022-11-14T03:00:33.715Z,29.90
2022-11-14T03:03:02.296Z,27.17
2022-11-14T03:05:30.345Z,28.20
2022-11-14T03:07:58.459Z,26.92
2022-11-14T03:10:28.184Z,28.20
2022-11-14T03:12:57.158Z,30.27
2022-11-14T03:15:25.838Z,29.77
2022-11-14T03:17:53.912Z,31.55
2022-11-14T03:20:21.968Z,27.50
2022-11-14T03:22:50.393Z,24.20
2022-11-14T03:25:18.614Z,23.55
2022-11-14T03:27:48.464Z,25.95
2022-11-14T03:30:16.727Z,25.10
2022-11-14T03:32:45.273Z,26.45
2022-11-14T03:35:13.639Z,25.30
2022-11-14T03:37:41.759Z,24.25
2022-11-14T03:40:10.935Z,25.15
2022-11-14T03:42:38.993Z,23.08
2022-11-14T03:45:09.389Z,25.85
2022-11-14T03:47:37.530Z,24.95
2022-11-14T03:50:06.994Z,25.20
2022-11-14T03:52:35.116Z,27.40
2022-11-14T03:55:03.540Z,26.58
2022-11-14T03:57:31.620Z,24.77
2022-11-14T04:00:00.124Z,25.45
2022-11-14T04:02:29.614Z,25.38
2022-11-14T04:04:57.926Z,24.05
2022-11-14T04:07:25.955Z,26.52
2022-11-14T04:09:54.108Z,24.85
2022-11-14T04:12:22.514Z,24.88
2022-11-14T04:14:50.620Z,27.30
2022-11-14T04:17:18.874Z,24.02
2022-11-14T04:19:48.348Z,22.70
2022-11-14T04:22:16.876Z,25.15
2022-11-14T04:24:44.932Z,23.98
2022-11-14T04:27:13.289Z,22.95
2022-11-14T04:29:41.445Z,22.25
2022-11-14T04:32:09.720Z,22.67
2022-11-14T04:34:37.768Z,21.10
2022-11-14T04:37:07.584Z,22.25
2022-11-14T04:39:35.727Z,22.70
2022-11-14T04:42:04.168Z,20.60
2022-11-14T04:44:32.431Z,23.75
2022-11-14T04:47:00.807Z,24.85
2022-11-14T04:49:28.811Z,21.42
2022-11-14T04:51:57.250Z,23.42
2022-11-14T04:54:26.649Z,23.10
2022-11-14T04:56:54.948Z,24.88
2022-11-14T04:59:23.040Z,20.73
2022-11-14T05:01:51.405Z,23.38
2022-11-14T05:04:19.791Z,19.73
2022-11-14T05:06:48.201Z,19.77
2022-11-14T05:09:16.322Z,18.92
2022-11-14T05:11:46.054Z,17.98
2022-11-14T05:14:14.227Z,19.48
2022-11-14T05:16:42.527Z,17.80
2022-11-14T05:19:10.659Z,17.95
2022-11-14T05:21:39.011Z,16.25
2022-11-14T05:24:07.556Z,17.25
2022-11-14T05:26:35.936Z,17.67
2022-11-14T05:29:05.494Z,18.45
2022-11-14T05:31:33.493Z,18.60
2022-11-14T05:34:01.998Z,17.52
2022-11-14T05:36:30.079Z,17.40
2022-11-14T05:38:58.711Z,19.63
2022-11-14T05:41:26.760Z,24.30
2022-11-14T05:43:55.317Z,21.55
2022-11-14T05:46:24.726Z,19.58
2022-11-14T05:48:53.207Z,18.50
2022-11-14T05:51:21.321Z,19.35
2022-11-14T05:53:49.858Z,19.20
2022-11-14T05:56:17.916Z,20.63
2022-11-14T05:58:46.472Z,19.50
2022-11-14T06:01:15.967Z,21.63
2022-11-14T06:03:46.905Z,17.92
2022-11-14T06:06:17.761Z,21.27
2022-11-14T06:08:46.202Z,19.95
2022-11-14T06:11:16.380Z,20.02
2022-11-14T06:13:45.128Z,19.33
2022-11-14T06:16:15.177Z,20.95
2022-11-14T06:18:45.480Z,22.45
2022-11-14T06:21:14.918Z,22.02
2022-11-14T06:23:43.541Z,21.25
2022-11-14T06:26:16.722Z,19.85
2022-11-14T06:28:45.279Z,18.92
2022-11-14T06:31:13.425Z,18.58
2022-11-14T06:33:41.859Z,19.65
2022-11-14T06:36:11.840Z,23.23
2022-11-14T06:38:41.283Z,20.50
2022-11-14T06:41:10.870Z,20.67
2022-11-14T06:43:41.160Z,19.05
2022-11-14T06:46:10.689Z,17.25
2022-11-14T06:48:39.486Z,19.58
2022-11-14T06:51:08.204Z,20.13
2022-11-14T06:53:38.051Z,17.60
2022-11-14T06:56:07.743Z,19.67
2022-11-14T06:58:39.014Z,19.35
2022-11-14T07:01:08.669Z,17.52
2022-11-14T07:03:37.015Z,19.25
2022-11-14T07:06:06.185Z,20.13
2022-11-14T07:08:35.124Z,19.55
2022-11-14T07:11:05.955Z,20.35
2022-11-14T07:13:35.523Z,18.77
2022-11-14T07:16:03.947Z,18.63
2022-11-14T07:18:33.164Z,20.60
2022-11-14T07:21:02.831Z,18.10
2022-11-14T07:23:32.009Z,17.13
2022-11-14T07:26:03.066Z,22.83
2022-11-14T07:28:33.229Z,23.80
2022-11-14T07:31:03.987Z,20.60
2022-11-14T07:33:32.821Z,20.00
2022-11-14T07:36:00.899Z,17.88
2022-11-14T07:38:29.549Z,19.88
2022-11-14T07:41:00.103Z,20.65
2022-11-14T07:43:29.350Z,21.02
2022-11-14T07:46:01.311Z,24.70
2022-11-14T07:48:30.553Z,24.65
2022-11-14T07:51:02.355Z,21.77
2022-11-14T07:53:31.336Z,23.10
2022-11-14T07:56:04.544Z,24.00
2022-11-14T07:58:33.217Z,19.67
2022-11-14T08:01:03.685Z,20.65
2022-11-14T08:03:32.455Z,22.50
2022-11-14T08:06:04.048Z,22.17
2022-11-14T08:08:32.859Z,20.30
2022-11-14T08:11:01.630Z,21.75
2022-11-14T08:13:32.607Z,21.48
2022-11-14T08:16:12.296Z,19.23
2022-11-14T08:18:42.491Z,18.80
2022-11-14T08:21:10.541Z,21.95
2022-11-14T08:23:38.895Z,20.88
2022-11-14T08:26:07.149Z,18.35
2022-11-14T08:28:35.573Z,19.95
2022-11-14T08:31:04.334Z,21.00
2022-11-14T08:33:34.244Z,21.05
2022-11-14T08:36:02.842Z,21.90
2022-11-14T08:38:32.838Z,23.92
2022-11-14T08:41:01.539Z,25.05
2022-11-14T08:43:30.010Z,22.23
2022-11-14T08:46:01.570Z,22.30
2022-11-14T08:48:31.576Z,27.15
2022-11-14T08:51:04.250Z,24.48
2022-11-14T08:53:32.731Z,20.17
2022-11-14T08:56:00.927Z,21.27
2022-11-14T08:58:31.496Z,18.90
2022-11-14T09:01:03.324Z,19.98
2022-11-14T09:03:31.871Z,21.23
2022-11-14T09:06:01.998Z,18.80
2022-11-14T09:08:31.369Z,20.00
2022-11-14T09:11:05.147Z,20.85
2022-11-14T09:13:36.797Z,20.20
2022-11-14T09:16:05.182Z,16.55
2022-11-14T09:18:33.738Z,19.60
2022-11-14T09:21:03.865Z,20.35
2022-11-14T09:23:32.474Z,18.98
2022-11-14T09:26:05.164Z,18.77
2022-11-14T09:28:33.693Z,21.08
2022-11-14T09:31:02.791Z,21.60
2022-11-14T09:33:31.671Z,19.23
2022-11-14T09:36:00.444Z,21.35
2022-11-14T09:38:35.406Z,22.40
2022-11-14T09:41:17.132Z,24.10
2022-11-14T09:43:58.645Z,21.42
2022-11-14T09:46:29.471Z,25.95
2022-11-14T09:48:57.914Z,22.13
2022-11-14T09:51:27.197Z,22.85
2022-11-14T09:54:00.835Z,22.83
2022-11-14T09:56:28.855Z,24.55
2022-11-14T09:58:57.672Z,22.42
2022-11-14T10:01:34.181Z,23.50
2022-11-14T10:04:10.727Z,20.60
2022-11-14T10:06:47.188Z,20.30
2022-11-14T10:09:31.164Z,18.98
2022-11-14T10:12:05.739Z,21.00
2022-11-14T10:15:05.483Z,25.35
2022-11-14T10:17:45.949Z,22.90
2022-11-14T10:20:19.675Z,21.58
2022-11-14T10:23:04.677Z,22.20
2022-11-14T10:25:44.275Z,21.90
2022-11-14T10:28:32.542Z,23.25
2022-11-14T10:31:07.844Z,23.98
2022-11-14T10:33:44.172Z,26.00
2022-11-14T10:36:19.392Z,24.65
2022-11-14T10:38:51.803Z,22.20
2022-11-14T10:41:49.813Z,25.00
2022-11-14T10:44:12.120Z,24.33
2022-11-14T10:46:45.255Z,25.20
2022-11-14T10:49:17.644Z,24.67
2022-11-14T10:51:48.662Z,26.85
2022-11-14T10:54:19.173Z,23.85
2022-11-14T10:56:50.193Z,24.75
2022-11-14T10:59:18.690Z,25.05
2022-11-14T11:01:55.016Z,27.20
2022-11-14T11:04:27.861Z,25.92
2022-11-14T11:06:57.977Z,26.73
2022-11-14T11:09:45.995Z,25.88
2022-11-14T11:12:20.757Z,23.95
2022-11-14T11:14:50.723Z,25.25
2022-11-14T11:17:29.545Z,30.40
2022-11-14T11:20:23.880Z,31.40
2022-11-14T11:23:03.685Z,38.10
2022-11-14T11:25:33.066Z,31.50
2022-11-14T11:28:07.793Z,29.85
2022-11-14T11:30:35.856Z,26.67
2022-11-14T11:33:17.886Z,25.90
2022-11-14T11:35:47.288Z,26.83
2022-11-14T11:38:16.255Z,26.95
2022-11-14T11:40:45.491Z,27.73
2022-11-14T11:46:13.342Z,29.23
2022-11-14T11:48:41.879Z,32.65
2022-11-14T11:51:15.507Z,35.58
2022-11-14T11:53:46.233Z,33.40
2022-11-14T11:56:17.577Z,33.77
2022-11-14T12:01:16.124Z,25.67
2022-11-14T12:03:48.068Z,25.45
2022-11-14T12:06:17.974Z,24.48
2022-11-14T12:08:57.492Z,24.67
2022-11-14T12:11:27.896Z,23.42
2022-11-14T12:14:29.740Z,26.83
2022-11-14T12:17:22.015Z,25.10
2022-11-14T12:20:05.249Z,26.60
2022-11-14T12:22:51.887Z,24.85
2022-11-14T12:25:51.221Z,27.35
2022-11-14T12:28:32.550Z,28.88
2022-11-14T12:31:04.740Z,30.58
2022-11-14T12:33:35.614Z,27.10
2022-11-14T12:36:06.957Z,31.30
2022-11-14T12:38:42.315Z,28.27
2022-11-14T12:41:11.374Z,29.05
2022-11-14T12:43:41.848Z,26.23
2022-11-14T12:46:13.173Z,25.90
2022-11-14T12:48:43.133Z,35.80
2022-11-14T12:51:48.785Z,30.45
2022-11-14T12:54:45.871Z,25.88
2022-11-14T12:57:41.856Z,27.40
2022-11-14T13:00:10.570Z,25.58
2022-11-14T13:03:01.523Z,26.23
2022-11-14T13:05:58.692Z,25.42
2022-11-14T13:08:45.665Z,27.95
2022-11-14T13:11:50.600Z,30.30
2022-11-14T13:14:37.476Z,27.70
2022-11-14T13:17:38.951Z,27.70
2022-11-14T13:20:47.031Z,25.73
2022-11-14T13:23:58.778Z,28.63
2022-11-14T13:26:43.924Z,28.02
2022-11-14T13:30:00.281Z,24.05
2022-11-14T13:32:54.170Z,24.75
2022-11-14T13:35:31.579Z,58.30
2022-11-14T13:38:18.794Z,52.22
2022-11-14T13:40:56.875Z,45.22
2022-11-14T13:43:33.525Z,39.08
2022-11-14T13:46:03.283Z,29.02
2022-11-14T13:48:55.626Z,28.88
2022-11-14T13:54:17.606Z,30.15
2022-11-14T13:56:55.531Z,28.00
2022-11-14T13:59:49.104Z,28.67
2022-11-14T14:02:52.624Z,27.92
2022-11-14T14:05:27.871Z,28.85
2022-11-14T14:08:10.634Z,26.63
2022-11-14T14:10:43.504Z,27.10
2022-11-14T14:13:22.472Z,27.00
2022-11-14T14:16:00.169Z,27.35
2022-11-14T14:18:42.104Z,28.42
2022-11-14T14:21:16.693Z,28.67
2022-11-14T14:23:48.886Z,34.33
2022-11-14T14:26:23.281Z,29.90
2022-11-14T14:28:57.535Z,29.90
2022-11-14T14:31:25.992Z,30.27
2022-11-14T14:33:54.068Z,28.30
2022-11-14T14:36:25.801Z,30.13
2022-11-14T14:39:13.355Z,27.45
2022-11-14T14:41:42.359Z,28.73
2022-11-14T14:44:20.425Z,30.00
2022-11-14T14:46:48.951Z,30.05
2022-11-14T14:49:21.129Z,31.80
2022-11-14T14:51:52.135Z,31.23
2022-11-14T14:54:25.978Z,35.60
2022-11-14T14:56:55.691Z,34.67
2022-11-14T14:59:26.745Z,33.75
2022-11-14T15:04:26.522Z,30.95
2022-11-14T15:06:57.716Z,32.30
2022-11-14T15:09:28.135Z,30.95
2022-11-14T15:11:59.277Z,32.58
2022-11-14T15:14:31.780Z,42.60
2022-11-14T15:17:01.756Z,68.35
2022-11-14T15:19:36.638Z,53.85
2022-11-14T15:22:07.189Z,35.78
2022-11-14T15:24:35.261Z,29.20
2022-11-14T15:27:05.938Z,31.25
2022-11-14T15:29:35.527Z,30.20
2022-11-14T15:32:05.888Z,35.42
2022-11-14T15:34:35.439Z,37.20
2022-11-14T15:37:21.745Z,56.50
2022-11-14T15:39:49.989Z,31.10
2022-11-14T15:42:22.114Z,33.83
2022-11-14T15:44:51.922Z,35.20
2022-11-14T15:47:23.106Z,36.95
2022-11-14T15:49:58.309Z,32.95
2022-11-14T15:52:30.622Z,30.10
2022-11-14T15:54:58.782Z,33.97
2022-11-14T15:57:27.141Z,32.70
2022-11-14T15:59:56.691Z,35.65
2022-11-14T16:02:26.912Z,32.03
2022-11-14T16:04:55.524Z,30.25
2022-11-14T16:07:24.012Z,30.38
2022-11-14T16:09:52.351Z,31.20
2022-11-14T16:12:20.744Z,29.70
2022-11-14T16:14:48.889Z,31.27
2022-11-14T16:17:19.348Z,32.78
2022-11-14T16:19:47.475Z,32.13
2022-11-14T16:22:18.619Z,38.70
2022-11-14T16:24:46.868Z,33.80
2022-11-14T16:27:15.607Z,42.83
2022-11-14T16:29:43.698Z,36.80
2022-11-14T16:32:12.369Z,34.13
2022-11-14T16:34:41.882Z,40.30
2022-11-14T16:37:13.633Z,35.47
2022-11-14T16:39:41.791Z,36.78
2022-11-14T16:42:11.294Z,35.35
2022-11-14T16:44:42.880Z,38.72
2022-11-14T16:47:14.609Z,34.63
2022-11-14T16:49:44.043Z,34.28
2022-11-14T16:52:13.282Z,37.05
2022-11-14T16:54:41.495Z,33.15
2022-11-14T16:57:09.875Z,32.97
2022-11-14T16:59:38.341Z,34.20
2022-11-14T17:02:07.131Z,33.70
2022-11-14T17:04:35.289Z,33.30
2022-11-14T17:07:05.104Z,36.03
2022-11-14T17:09:33.291Z,36.58
2022-11-14T17:12:01.629Z,33.42
2022-11-14T17:14:29.938Z,33.83
2022-11-14T17:17:04.357Z,33.05
2022-11-14T17:19:32.625Z,34.00
2022-11-14T17:22:00.962Z,36.20
2022-11-14T17:24:31.662Z,36.55
2022-11-14T17:27:00.743Z,34.35
2022-11-14T17:29:28.800Z,38.53
2022-11-14T17:31:57.170Z,38.80
2022-11-14T17:34:25.269Z,35.47
2022-11-14T17:36:53.677Z,35.85
2022-11-14T17:39:21.729Z,34.95
2022-11-14T17:41:51.521Z,37.53
2022-11-14T17:44:19.719Z,35.15
2022-11-14T17:46:48.313Z,36.35
2022-11-14T17:49:16.439Z,38.70
2022-11-14T17:51:44.816Z,35.55
2022-11-14T17:54:12.935Z,37.75
2022-11-14T17:56:46.564Z,37.33
2022-11-14T17:59:19.239Z,38.90
2022-11-14T18:01:47.779Z,39.22
2022-11-14T18:04:16.056Z,38.50
2022-11-14T18:06:44.437Z,40.70
2022-11-14T18:09:14.365Z,39.10
2022-11-14T18:11:43.040Z,40.80
2022-11-14T18:14:11.910Z,42.10
2022-11-14T18:17:10.548Z,46.10
2022-11-14T18:19:29.863Z,40.10
2022-11-14T18:21:58.171Z,41.28
2022-11-14T18:24:26.204Z,36.35
2022-11-14T18:26:55.574Z,39.55
2022-11-14T18:29:23.799Z,42.58
2022-11-14T18:31:53.504Z,40.28
2022-11-14T18:34:21.595Z,37.55
2022-11-14T18:36:50.198Z,43.67
2022-11-14T18:39:18.181Z,60.78
2022-11-14T18:41:46.509Z,47.28
2022-11-14T18:44:14.747Z,43.47
2022-11-14T18:46:43.100Z,45.28
2022-11-14T18:49:12.760Z,48.20
2022-11-14T18:51:42.326Z,37.13
2022-11-14T18:54:12.684Z,37.75
2022-11-14T18:56:41.725Z,37.30
2022-11-14T18:59:12.290Z,41.05
2022-11-14T19:01:41.472Z,38.55
2022-11-14T19:04:12.382Z,35.92
2022-11-14T19:06:41.908Z,41.33
2022-11-14T19:09:11.930Z,35.97
2022-11-14T19:11:57.859Z,42.75
2022-11-14T19:14:26.074Z,42.45
2022-11-14T19:16:54.678Z,37.75
2022-11-14T19:19:24.245Z,40.83
2022-11-14T19:21:52.760Z,39.67
2022-11-14T19:24:21.094Z,43.55
2022-11-14T19:26:49.207Z,41.00
2022-11-14T19:29:17.797Z,39.83
2022-11-14T19:31:46.073Z,36.60
2022-11-14T19:34:15.836Z,37.95
2022-11-14T19:36:59.557Z,36.80
2022-11-14T19:39:28.856Z,35.13
2022-11-14T19:41:56.982Z,40.92
2022-11-14T19:44:25.482Z,39.95
2022-11-14T19:46:53.586Z,37.80
2022-11-14T19:49:22.079Z,36.65
2022-11-14T19:51:51.591Z,36.35
2022-11-14T19:54:19.984Z,34.00
2022-11-14T19:56:48.080Z,33.65
2022-11-14T19:59:20.177Z,33.42
2022-11-14T20:02:03.122Z,34.10
2022-11-14T20:04:36.867Z,33.45
2022-11-14T20:07:07.365Z,34.58
2022-11-14T20:09:35.959Z,33.55
2022-11-14T20:12:04.018Z,34.85
2022-11-14T20:14:32.435Z,34.30
2022-11-14T20:17:00.488Z,36.30
2022-11-14T20:19:28.904Z,38.50
2022-11-14T20:21:57.040Z,33.45
2022-11-14T20:24:26.894Z,34.42
2022-11-14T20:26:55.120Z,35.20
2022-11-14T20:29:23.806Z,34.75
2022-11-14T20:31:51.933Z,36.83
2022-11-14T20:34:20.299Z,34.80
2022-11-14T20:39:38.093Z,37.10
2022-11-14T20:42:06.660Z,38.33
2022-11-14T20:44:35.183Z,38.38
2022-11-14T20:47:07.124Z,40.22
2022-11-14T20:49:38.134Z,39.17
2022-11-14T20:52:06.565Z,39.60
2022-11-14T20:54:34.929Z,37.83
2022-11-14T20:57:04.529Z,36.17
2022-11-14T20:59:33.308Z,35.80
2022-11-14T21:02:01.421Z,33.72
2022-11-14T21:04:30.056Z,35.33
2022-11-14T21:06:58.301Z,34.10
2022-11-14T21:09:28.159Z,33.78
2022-11-14T21:11:56.236Z,32.53
2022-11-14T21:14:26.129Z,31.35
2022-11-14T21:16:54.231Z,35.78
2022-11-14T21:19:22.814Z,34.88
2022-11-14T21:21:51.009Z,35.97
2022-11-14T21:24:19.504Z,36.30
2022-11-14T21:26:47.666Z,39.95
2022-11-14T21:29:16.062Z,35.63
2022-11-14T21:31:47.020Z,39.08
2022-11-14T21:34:18.066Z,35.13
2022-11-14T21:36:47.335Z,35.95
2022-11-14T21:39:17.722Z,33.13
2022-11-14T21:41:48.440Z,34.80
2022-11-14T21:44:18.500Z,32.05
2022-11-14T21:46:49.674Z,32.78
2022-11-14T21:49:18.271Z,31.10
2022-11-14T21:51:47.234Z,31.95
2022-11-14T21:54:15.758Z,32.15
2022-11-14T21:56:43.892Z,29.02
2022-11-14T21:59:16.040Z,32.00
2022-11-14T22:02:03.395Z,32.03
2022-11-14T22:04:33.679Z,30.73
2022-11-14T22:07:04.879Z,32.67
2022-11-14T22:09:33.837Z,32.63
2022-11-14T22:12:02.318Z,31.05
2022-11-14T22:14:30.784Z,28.88
2022-11-14T22:16:59.141Z,31.13
2022-11-14T22:19:27.683Z,29.60
2022-11-14T22:21:57.170Z,30.75
2022-11-14T22:24:25.761Z,31.00
2022-11-14T22:26:53.811Z,29.55
2022-11-14T22:29:22.351Z,31.23
2022-11-14T22:31:53.006Z,32.15
2022-11-14T22:34:21.448Z,32.25
2022-11-14T22:36:49.634Z,29.80
2022-11-14T22:39:19.297Z,30.63
2022-11-14T22:41:47.509Z,30.23
2022-11-14T22:44:15.839Z,30.13
2022-11-14T22:46:43.922Z,29.92
2022-11-14T22:49:14.214Z,31.73
2022-11-14T22:51:45.426Z,30.30
2022-11-14T22:54:14.368Z,27.15
2022-11-14T22:56:43.798Z,28.25
2022-11-14T22:59:12.250Z,26.05
2022-11-14T23:01:40.298Z,30.50
2022-11-14T23:04:10.260Z,26.70
2022-11-14T23:06:38.274Z,28.05
2022-11-14T23:09:06.696Z,29.95
2022-11-14T23:11:34.977Z,26.30
2022-11-14T23:14:04.822Z,29.40
2022-11-14T23:16:33.935Z,29.23
2022-11-14T23:19:04.294Z,28.17
2022-11-14T23:21:34.256Z,27.17
2022-11-14T23:24:06.361Z,29.08
2022-11-14T23:26:34.572Z,29.38
2022-11-14T23:29:04.542Z,29.17
2022-11-14T23:31:32.621Z,27.40
2022-11-14T23:34:00.965Z,27.50
2022-11-14T23:36:29.203Z,27.42
2022-11-14T23:38:57.554Z,25.38
2022-11-14T23:41:26.803Z,24.17
2022-11-14T23:43:55.197Z,24.98
2022-11-14T23:46:24.665Z,22.52
2022-11-14T23:48:53.503Z,25.45
2022-11-14T23:51:21.729Z,26.38
2022-11-14T23:53:50.740Z,25.20
2022-11-14T23:56:19.039Z,27.33
2022-11-14T23:58:47.616Z,25.10
